Time;durP1;ratioP1;P1;durP2;ratioP2;P2;SDS_P1;SDS_P2;PMS_P1;PMS_P2;Temp;Humidity;BMP_temperature;BMP_pressure;BME280_temperature;BME280_humidity;BME280_pressure;Samples;Min_cycle;Max_cycle;Signal;HPM_P1;HPM_P2
2022/08/25 00:01:14;;;;;;;3.65;2.70;;;20.70;99.90;;;;;;5070020;28;20040;-73
2022/08/25 00:03:41;;;;;;;4.60;2.20;;;20.70;99.90;;;;;;5084171;28;20078;-74
2022/08/25 00:06:07;;;;;;;3.50;2.40;;;20.70;99.90;;;;;;5090844;28;20028;-73
2022/08/25 00:08:33;;;;;;;2.83;2.03;;;20.70;99.90;;;;;;5088256;28;20051;-73
2022/08/25 00:11:00;;;;;;;2.72;1.85;;;20.70;99.90;;;;;;5069887;28;20381;-73
2022/08/25 00:13:28;;;;;;;4.00;2.17;;;20.60;99.90;;;;;;5093686;28;20032;-73
2022/08/25 00:15:53;;;;;;;3.80;2.38;;;20.60;99.90;;;;;;5091457;28;20089;-73
2022/08/25 00:18:19;;;;;;;3.38;2.28;;;20.50;99.90;;;;;;5079272;28;20043;-73
2022/08/25 00:20:46;;;;;;;5.35;2.53;;;20.60;99.90;;;;;;5096156;28;20036;-73
2022/08/25 00:23:11;;;;;;;3.88;2.17;;;20.60;99.90;;;;;;5073610;28;20122;-74
2022/08/25 00:25:37;;;;;;;4.20;2.35;;;20.60;99.90;;;;;;5081695;28;20111;-73
2022/08/25 00:28:03;;;;;;;3.33;2.17;;;20.60;99.90;;;;;;5088441;28;20040;-73
2022/08/25 00:30:29;;;;;;;3.67;2.15;;;20.60;99.90;;;;;;5084238;28;20040;-73
2022/08/25 00:32:55;;;;;;;3.42;2.10;;;20.60;99.90;;;;;;5074878;28;20036;-73
2022/08/25 00:35:21;;;;;;;3.15;1.92;;;20.60;99.90;;;;;;5089541;28;20058;-73
2022/08/25 00:37:48;;;;;;;4.57;2.45;;;20.50;99.90;;;;;;5089261;28;20035;-74
2022/08/25 00:40:14;;;;;;;2.72;2.15;;;20.60;99.90;;;;;;5098056;28;20477;-73
2022/08/25 00:42:40;;;;;;;3.53;2.38;;;20.50;99.90;;;;;;5085174;28;20085;-73
2022/08/25 00:45:07;;;;;;;3.08;2.17;;;20.50;99.90;;;;;;5092214;28;20829;-74
2022/08/25 00:47:33;;;;;;;2.95;1.90;;;20.50;99.90;;;;;;5082506;28;20116;-73
2022/08/25 00:50:01;;;;;;;3.00;1.80;;;20.50;99.90;;;;;;5081354;28;20081;-74
2022/08/25 00:52:30;;;;;;;2.80;1.95;;;20.40;99.90;;;;;;5109395;27;20120;-73
2022/08/25 00:55:12;;;;;;;3.33;1.90;;;20.40;99.90;;;;;;5097141;28;20036;-74
2022/08/25 00:57:43;;;;;;;3.03;1.83;;;20.40;99.90;;;;;;5095580;28;20040;-73
2022/08/25 01:00:15;;;;;;;3.55;1.60;;;20.40;99.90;;;;;;5087043;28;20079;-73
2022/08/25 01:02:42;;;;;;;3.65;1.90;;;20.40;99.90;;;;;;5089624;28;20040;-73
2022/08/25 01:05:08;;;;;;;3.28;2.10;;;20.30;99.90;;;;;;5090397;28;20496;-73
2022/08/25 01:07:35;;;;;;;2.35;1.70;;;20.30;99.90;;;;;;5079088;28;21668;-73
2022/08/25 01:10:01;;;;;;;2.33;1.67;;;20.30;99.80;;;;;;5088215;28;20384;-73
2022/08/25 01:12:26;;;;;;;3.30;2.28;;;20.30;99.90;;;;;;5087923;28;20577;-73
2022/08/25 01:14:53;;;;;;;2.67;1.95;;;20.20;99.80;;;;;;5091330;28;20122;-73
2022/08/25 01:17:20;;;;;;;3.60;2.00;;;20.20;99.80;;;;;;5080803;28;20088;-73
2022/08/25 01:19:46;;;;;;;2.78;1.85;;;20.20;99.80;;;;;;5082691;28;20097;-74
2022/08/25 01:22:12;;;;;;;3.22;1.80;;;20.20;99.70;;;;;;5091741;28;20047;-73
2022/08/25 01:24:45;;;;;;;3.90;1.85;;;20.20;99.70;;;;;;5083783;28;20557;-73
2022/08/25 01:27:11;;;;;;;2.75;1.92;;;20.10;99.60;;;;;;5083384;28;20500;-73
2022/08/25 01:29:37;;;;;;;3.42;1.70;;;20.20;99.60;;;;;;5086679;28;20040;-73
2022/08/25 01:32:06;;;;;;;2.58;1.52;;;20.10;99.40;;;;;;5079506;28;20034;-73
2022/08/25 01:34:35;;;;;;;2.72;1.58;;;20.20;99.10;;;;;;5085885;28;20535;-73
2022/08/25 01:37:01;;;;;;;2.65;1.63;;;20.10;99.00;;;;;;5090069;28;20039;-73
2022/08/25 01:39:29;;;;;;;2.80;1.35;;;20.10;98.90;;;;;;5065073;28;20499;-73
2022/08/25 01:42:27;;;;;;;2.05;1.60;;;20.10;98.90;;;;;;5092803;28;20036;-73
2022/08/25 01:44:53;;;;;;;2.58;1.38;;;20.10;98.50;;;;;;5084451;28;20044;-73
2022/08/25 01:47:19;;;;;;;2.20;1.23;;;20.10;98.50;;;;;;5081993;28;20032;-73
2022/08/25 01:49:45;;;;;;;3.85;1.67;;;20.10;98.50;;;;;;5077583;28;20040;-73
2022/08/25 01:52:30;;;;;;;2.15;1.42;;;20.10;98.20;;;;;;5062094;28;20486;-73
2022/08/25 01:54:56;;;;;;;4.68;1.77;;;20.10;97.50;;;;;;5083808;28;20394;-73
2022/08/25 01:57:21;;;;;;;2.75;1.55;;;20.00;97.80;;;;;;5067351;28;20047;-73
2022/08/25 01:59:47;;;;;;;3.00;1.73;;;20.10;97.90;;;;;;5091221;28;20061;-73
2022/08/25 02:02:13;;;;;;;4.43;1.42;;;20.00;97.80;;;;;;5087161;28;20100;-73
2022/08/25 02:04:39;;;;;;;3.83;1.90;;;20.00;97.80;;;;;;5098950;27;20050;-73
2022/08/25 02:07:06;;;;;;;1.95;1.48;;;20.00;97.70;;;;;;5093408;28;20033;-73
2022/08/25 02:09:34;;;;;;;5.95;1.38;;;20.00;97.50;;;;;;5096901;28;20058;-73
2022/08/25 02:12:00;;;;;;;3.75;1.60;;;20.00;97.40;;;;;;5062905;28;20075;-73
2022/08/25 02:14:27;;;;;;;1.90;1.50;;;20.00;97.30;;;;;;5078865;28;20524;-73
2022/08/25 02:16:54;;;;;;;2.58;1.48;;;20.00;97.10;;;;;;5083690;28;20044;-73
2022/08/25 02:19:21;;;;;;;2.83;1.73;;;19.90;97.10;;;;;;5086307;28;20105;-73
2022/08/25 02:21:47;;;;;;;2.78;1.42;;;19.90;97.00;;;;;;5080068;28;20084;-73
2022/08/25 02:24:13;;;;;;;1.60;1.10;;;19.90;97.00;;;;;;5107309;28;20077;-73
2022/08/25 02:26:39;;;;;;;3.35;1.45;;;19.90;96.90;;;;;;5087395;28;20509;-73
2022/08/25 02:29:06;;;;;;;2.65;1.25;;;19.90;97.00;;;;;;5095001;28;20039;-73
2022/08/25 02:31:33;;;;;;;2.97;1.23;;;19.90;97.00;;;;;;5093237;28;20544;-73
2022/08/25 02:34:00;;;;;;;2.20;1.30;;;19.80;97.10;;;;;;5070987;28;20602;-73
2022/08/25 02:36:26;;;;;;;1.92;1.20;;;19.80;97.00;;;;;;5088526;28;20126;-73
2022/08/25 02:38:52;;;;;;;3.70;1.80;;;19.80;97.30;;;;;;5076418;28;20122;-73
2022/08/25 02:41:21;;;;;;;3.25;1.70;;;19.80;96.90;;;;;;5089120;28;20039;-73
2022/08/25 02:43:48;;;;;;;3.70;1.38;;;19.80;96.90;;;;;;5117757;27;20042;-73
2022/08/25 02:46:15;;;;;;;3.33;1.38;;;19.70;96.80;;;;;;5063553;28;20051;-73
2022/08/25 02:48:41;;;;;;;1.92;1.20;;;19.70;96.70;;;;;;5096137;28;20055;-73
2022/08/25 02:51:08;;;;;;;2.60;1.40;;;19.70;96.60;;;;;;5080813;28;20127;-73
2022/08/25 02:53:35;;;;;;;2.35;1.30;;;19.70;96.50;;;;;;5095134;28;20561;-73
2022/08/25 02:56:01;;;;;;;2.53;1.50;;;19.70;96.40;;;;;;5097606;28;20660;-73
2022/08/25 02:58:27;;;;;;;3.20;1.33;;;19.70;96.30;;;;;;5084629;28;20024;-73
2022/08/25 03:00:54;;;;;;;2.90;1.50;;;19.70;96.20;;;;;;5067035;28;20051;-73
2022/08/25 03:03:20;;;;;;;2.20;1.30;;;19.70;96.20;;;;;;5094418;28;20044;-73
2022/08/25 03:05:46;;;;;;;1.85;1.27;;;19.60;96.20;;;;;;5067868;28;20599;-73
2022/08/25 03:08:12;;;;;;;5.88;1.45;;;19.60;96.10;;;;;;5095254;28;20537;-74
2022/08/25 03:10:38;;;;;;;2.60;1.40;;;19.60;96.00;;;;;;5088212;28;20043;-73
2022/08/25 03:13:04;;;;;;;3.08;1.38;;;19.60;96.10;;;;;;5089517;28;20043;-73
2022/08/25 03:15:31;;;;;;;2.35;1.38;;;19.60;96.10;;;;;;5089334;28;20600;-73
2022/08/25 03:17:57;;;;;;;4.20;1.20;;;19.60;96.10;;;;;;5096344;28;21088;-73
2022/08/25 03:20:24;;;;;;;2.78;1.30;;;19.60;96.10;;;;;;5088444;28;20485;-73
2022/08/25 03:22:50;;;;;;;2.20;1.70;;;19.60;96.00;;;;;;5093561;28;20122;-73
2022/08/25 03:28:02;;;;;;;3.20;1.70;;;19.50;96.00;;;;;;5080679;28;20044;-73
2022/08/25 03:30:28;;;;;;;2.53;1.40;;;19.50;96.00;;;;;;5061154;28;20082;-73
2022/08/25 03:32:54;;;;;;;3.83;1.40;;;19.50;96.00;;;;;;5093146;28;20063;-73
2022/08/25 03:35:20;;;;;;;2.67;1.40;;;19.50;95.90;;;;;;5070660;28;20044;-73
2022/08/25 03:37:46;;;;;;;2.05;1.25;;;19.50;95.80;;;;;;5067918;28;20032;-73
2022/08/25 03:40:13;;;;;;;2.17;1.42;;;19.50;95.80;;;;;;5087775;28;20516;-73
2022/08/25 03:42:40;;;;;;;2.58;1.63;;;19.50;95.70;;;;;;5092027;28;20088;-73
2022/08/25 03:45:07;;;;;;;2.15;1.33;;;19.40;95.80;;;;;;5072158;28;20042;-73
2022/08/25 03:47:33;;;;;;;1.80;1.23;;;19.40;95.80;;;;;;5085364;28;20040;-73
2022/08/25 03:49:58;;;;;;;2.45;1.30;;;19.40;95.70;;;;;;5084919;28;20035;-73
2022/08/25 03:52:24;;;;;;;1.70;1.23;;;19.40;95.70;;;;;;5090587;28;20704;-73
2022/08/25 03:54:50;;;;;;;2.38;1.38;;;19.40;95.50;;;;;;5090796;28;22240;-73
2022/08/25 03:57:15;;;;;;;3.60;1.40;;;19.40;95.60;;;;;;5081051;28;20089;-73
2022/08/25 03:59:41;;;;;;;2.45;1.23;;;19.30;95.50;;;;;;5068907;28;20040;-73
2022/08/25 04:02:07;;;;;;;3.17;1.88;;;19.30;95.50;;;;;;5088603;28;20027;-73
2022/08/25 04:04:33;;;;;;;4.97;1.42;;;19.30;95.50;;;;;;5093688;28;20509;-73
2022/08/25 04:07:00;;;;;;;2.30;1.48;;;19.30;95.50;;;;;;5088947;28;20042;-73
2022/08/25 04:09:26;;;;;;;2.38;1.30;;;19.30;95.50;;;;;;5085843;28;20029;-73
2022/08/25 04:11:52;;;;;;;3.35;1.60;;;19.20;95.60;;;;;;5098317;28;20051;-73
2022/08/25 04:14:19;;;;;;;2.75;1.50;;;19.20;95.60;;;;;;5089392;28;20050;-73
2022/08/25 04:16:45;;;;;;;2.13;1.10;;;19.20;95.50;;;;;;5093811;28;20524;-73
2022/08/25 04:19:11;;;;;;;3.00;1.60;;;19.30;95.60;;;;;;5090886;28;20109;-73
2022/08/25 04:21:38;;;;;;;2.97;1.30;;;19.20;95.60;;;;;;5085474;28;20113;-73
2022/08/25 04:24:05;;;;;;;2.38;1.48;;;19.20;95.80;;;;;;5085817;28;20047;-73
2022/08/25 04:26:33;;;;;;;2.45;1.52;;;19.20;95.50;;;;;;5072076;28;20093;-73
2022/08/25 04:29:00;;;;;;;3.00;1.50;;;19.20;95.50;;;;;;5085045;28;20660;-74
2022/08/25 04:31:27;;;;;;;2.05;1.30;;;19.10;95.50;;;;;;5089185;28;20031;-73
2022/08/25 04:33:52;;;;;;;2.05;1.45;;;19.10;95.40;;;;;;5092327;28;20052;-73
2022/08/25 04:36:20;;;;;;;3.35;1.52;;;19.10;95.40;;;;;;5086072;28;20055;-73
2022/08/25 04:38:47;;;;;;;2.47;1.50;;;19.10;95.40;;;;;;5085025;28;20051;-73
2022/08/25 04:41:15;;;;;;;2.58;1.38;;;19.10;95.50;;;;;;5093826;28;20462;-73
2022/08/25 04:43:43;;;;;;;2.72;1.23;;;19.10;95.50;;;;;;5087293;28;20032;-73
2022/08/25 04:46:11;;;;;;;3.58;1.60;;;19.10;95.50;;;;;;5093333;27;20039;-73
2022/08/25 04:48:40;;;;;;;3.50;1.02;;;19.10;95.50;;;;;;5096948;28;20032;-73
2022/08/25 04:51:08;;;;;;;3.78;1.73;;;19.10;95.60;;;;;;5083483;28;20146;-73
2022/08/25 04:53:35;;;;;;;3.55;1.75;;;19.10;95.50;;;;;;5066573;28;20078;-73
2022/08/25 04:56:04;;;;;;;3.28;1.55;;;19.10;95.60;;;;;;5093631;28;20058;-73
2022/08/25 04:58:30;;;;;;;2.63;1.58;;;19.00;95.60;;;;;;5078985;28;20036;-73
2022/08/25 05:01:04;;;;;;;7.40;1.85;;;19.00;95.70;;;;;;5086368;28;20085;-73
2022/08/25 05:03:30;;;;;;;2.00;1.40;;;19.00;95.80;;;;;;5084219;28;20036;-73
2022/08/25 05:05:56;;;;;;;3.28;1.50;;;19.00;95.90;;;;;;5065149;28;20192;-73
2022/08/25 05:08:22;;;;;;;3.40;1.60;;;19.00;95.80;;;;;;5095854;28;20542;-73
2022/08/25 05:10:48;;;;;;;2.45;1.25;;;19.00;95.80;;;;;;5089745;28;20039;-73
2022/08/25 05:13:13;;;;;;;3.45;1.45;;;19.10;95.80;;;;;;5072442;28;20534;-73
2022/08/25 05:15:51;;;;;;;3.88;1.52;;;19.00;95.80;;;;;;5089620;28;20046;-73
2022/08/25 05:18:18;;;;;;;3.78;1.90;;;19.00;95.80;;;;;;5088978;28;20059;-73
2022/08/25 05:20:44;;;;;;;3.92;1.77;;;19.00;95.90;;;;;;5097559;28;20048;-73
2022/08/25 05:23:09;;;;;;;2.60;1.70;;;19.10;95.90;;;;;;5083219;28;20066;-73
2022/08/25 05:25:35;;;;;;;2.55;1.45;;;19.10;96.00;;;;;;5077930;28;20078;-73
2022/08/25 05:28:01;;;;;;;4.35;1.58;;;19.10;96.10;;;;;;5087060;28;20049;-73
2022/08/25 05:30:27;;;;;;;5.13;1.92;;;19.10;96.10;;;;;;5085053;28;20036;-73
2022/08/25 05:32:53;;;;;;;3.13;1.55;;;19.10;96.10;;;;;;5085694;28;20036;-73
2022/08/25 05:35:19;;;;;;;2.60;1.40;;;19.10;96.00;;;;;;5091308;28;20028;-73
2022/08/25 05:37:45;;;;;;;3.95;2.00;;;19.10;96.10;;;;;;5084028;28;20040;-73
2022/08/25 05:40:11;;;;;;;3.83;1.88;;;19.10;96.00;;;;;;5097027;28;20036;-73
2022/08/25 05:42:36;;;;;;;3.42;1.60;;;19.10;96.00;;;;;;5099657;28;20417;-73
2022/08/25 05:45:04;;;;;;;2.97;1.63;;;19.10;96.00;;;;;;5085739;28;20055;-73
2022/08/25 05:47:30;;;;;;;2.88;1.73;;;19.10;96.10;;;;;;5094775;28;20067;-73
2022/08/25 05:49:56;;;;;;;4.18;1.50;;;19.10;96.10;;;;;;5088471;28;20804;-73
2022/08/25 05:52:21;;;;;;;2.67;1.40;;;19.10;96.20;;;;;;5089209;28;20080;-73
2022/08/25 05:54:48;;;;;;;4.45;1.92;;;19.10;96.20;;;;;;5090582;28;21810;-73
2022/08/25 05:57:13;;;;;;;4.50;1.65;;;19.10;96.20;;;;;;5079121;28;20043;-73
2022/08/25 05:59:39;;;;;;;3.33;1.58;;;19.10;96.20;;;;;;5080371;28;20028;-73
2022/08/25 06:04:49;;;;;;;4.13;2.08;;;19.20;96.20;;;;;;5085970;28;20035;-73
2022/08/25 06:07:14;;;;;;;3.00;1.48;;;19.20;96.20;;;;;;5086050;28;21839;-73
2022/08/25 06:09:40;;;;;;;4.10;1.90;;;19.30;96.10;;;;;;5097147;28;20481;-73
2022/08/25 06:12:07;;;;;;;3.17;1.73;;;19.30;96.00;;;;;;5081940;28;20040;-73
2022/08/25 06:14:33;;;;;;;1.90;1.10;;;19.30;96.00;;;;;;5098046;28;20077;-73
2022/08/25 06:16:59;;;;;;;4.22;1.73;;;19.40;96.10;;;;;;5085426;28;20036;-74
2022/08/25 06:19:26;;;;;;;2.58;1.33;;;19.30;96.10;;;;;;5078519;28;20044;-73
2022/08/25 06:21:56;;;;;;;2.97;1.40;;;19.40;96.10;;;;;;5088009;28;20080;-73
2022/08/25 06:24:23;;;;;;;3.75;1.77;;;19.40;96.20;;;;;;5079128;28;20051;-73
2022/08/25 06:26:49;;;;;;;4.75;1.73;;;19.50;96.10;;;;;;5094240;28;20526;-73
2022/08/25 06:29:15;;;;;;;2.75;1.30;;;19.50;96.10;;;;;;5081550;28;20031;-73
2022/08/25 06:31:41;;;;;;;3.17;1.65;;;19.50;96.10;;;;;;5093867;28;20085;-73
2022/08/25 06:34:07;;;;;;;4.22;1.75;;;19.50;96.10;;;;;;5092792;28;20055;-73
2022/08/25 06:36:33;;;;;;;3.40;1.73;;;19.60;96.10;;;;;;5071611;28;20047;-72
2022/08/25 06:38:59;;;;;;;2.60;1.30;;;19.60;96.10;;;;;;5076512;28;20032;-73
2022/08/25 06:41:25;;;;;;;3.25;1.33;;;19.60;96.10;;;;;;5072440;28;20543;-72
2022/08/25 06:43:51;;;;;;;3.28;1.73;;;19.70;96.10;;;;;;5074786;28;20505;-72
2022/08/25 06:46:20;;;;;;;2.63;1.65;;;19.70;96.10;;;;;;5081293;28;20169;-73
2022/08/25 06:48:46;;;;;;;3.58;1.90;;;19.80;96.20;;;;;;5089688;28;20504;-74
2022/08/25 06:51:14;;;;;;;3.30;1.77;;;19.80;96.20;;;;;;5084114;28;20047;-74
2022/08/25 06:53:41;;;;;;;3.30;1.70;;;19.90;96.30;;;;;;5097096;28;20127;-74
2022/08/25 06:56:07;;;;;;;3.28;1.60;;;19.90;96.30;;;;;;5083581;28;20036;-73
2022/08/25 06:58:33;;;;;;;2.92;1.73;;;20.00;96.30;;;;;;5086090;28;20044;-73
2022/08/25 07:01:11;;;;;;;3.92;1.55;;;20.10;96.60;;;;;;5087214;28;20043;-73
2022/08/25 07:03:37;;;;;;;2.88;1.73;;;20.10;96.30;;;;;;5091960;28;20036;-73
2022/08/25 07:06:03;;;;;;;7.72;1.52;;;20.20;96.30;;;;;;5079222;28;20526;-73
2022/08/25 07:08:29;;;;;;;3.30;2.03;;;20.30;96.30;;;;;;5084096;28;20032;-74
2022/08/25 07:10:55;;;;;;;2.65;1.52;;;20.30;96.30;;;;;;5082460;28;20440;-73
2022/08/25 07:13:20;;;;;;;3.53;1.83;;;20.40;96.20;;;;;;5086314;28;20036;-73
2022/08/25 07:15:46;;;;;;;5.15;1.70;;;20.50;96.20;;;;;;5090524;28;20130;-72
2022/08/25 07:18:12;;;;;;;3.38;1.95;;;20.50;96.20;;;;;;5093102;28;20035;-71
2022/08/25 07:20:39;;;;;;;3.15;1.73;;;20.50;96.40;;;;;;5087947;28;21168;-73
2022/08/25 07:23:05;;;;;;;3.30;1.58;;;20.60;96.20;;;;;;5079959;28;20072;-72
2022/08/25 07:25:32;;;;;;;10.05;1.90;;;20.60;96.10;;;;;;5086098;28;20677;-79
2022/08/25 07:27:58;;;;;;;5.40;1.60;;;20.70;96.20;;;;;;5077289;28;20047;-73
2022/08/25 07:30:25;;;;;;;3.05;1.63;;;20.70;96.20;;;;;;5102436;28;20477;-73
2022/08/25 07:32:50;;;;;;;2.67;1.60;;;20.80;96.20;;;;;;5104451;28;20061;-72
2022/08/25 07:35:16;;;;;;;4.53;2.03;;;20.80;96.20;;;;;;5106477;28;20083;-73
2022/08/25 07:37:48;;;;;;;4.15;1.50;;;20.90;96.20;;;;;;5088906;28;20131;-73
2022/08/25 07:40:20;;;;;;;3.28;1.42;;;20.90;96.30;;;;;;5105667;28;20043;-73
2022/08/25 07:42:48;;;;;;;2.55;1.50;;;21.00;96.30;;;;;;5104324;28;20136;-73
2022/08/25 07:45:14;;;;;;;2.92;1.67;;;21.00;96.20;;;;;;5086572;28;20429;-73
2022/08/25 07:47:40;;;;;;;3.42;1.75;;;21.10;96.40;;;;;;5087125;28;20040;-73
2022/08/25 07:50:08;;;;;;;3.95;1.67;;;21.10;96.40;;;;;;5104758;28;20032;-73
2022/08/25 07:52:34;;;;;;;3.83;1.73;;;21.20;96.30;;;;;;5104142;28;20385;-73
2022/08/25 07:55:00;;;;;;;4.20;1.80;;;21.20;96.20;;;;;;5104696;28;20047;-72
2022/08/25 07:57:28;;;;;;;3.00;1.38;;;21.30;96.20;;;;;;5105346;28;20036;-73
2022/08/25 07:59:54;;;;;;;2.60;1.40;;;21.40;96.30;;;;;;5086242;28;20048;-73
2022/08/25 08:02:20;;;;;;;2.65;1.58;;;21.40;96.10;;;;;;5086013;28;20388;-73
2022/08/25 08:04:48;;;;;;;2.90;1.45;;;21.50;96.00;;;;;;5106120;28;20036;-73
2022/08/25 08:07:23;;;;;;;3.03;1.80;;;21.60;96.00;;;;;;5107382;28;20073;-73
2022/08/25 08:09:49;;;;;;;;;;;21.60;96.10;;;;;;5083200;28;20070;-73
2022/08/25 08:12:15;;;;;;;4.80;1.75;;;21.70;96.10;;;;;;5087055;28;19920;-73
2022/08/25 08:14:41;;;;;;;4.40;1.75;;;21.70;95.80;;;;;;5106234;28;20113;-73
2022/08/25 08:17:08;;;;;;;3.95;1.70;;;21.70;95.80;;;;;;5085415;28;20036;-73
2022/08/25 08:19:35;;;;;;;2.58;1.48;;;21.80;95.80;;;;;;5088387;28;20044;-73
2022/08/25 08:22:02;;;;;;;2.83;1.40;;;21.80;95.60;;;;;;5071905;28;20158;-73
2022/08/25 08:24:29;;;;;;;4.13;1.80;;;22.00;95.60;;;;;;5104557;28;20051;-73
2022/08/25 08:26:55;;;;;;;3.47;1.58;;;22.00;95.50;;;;;;5105504;28;20043;-73
2022/08/25 08:29:22;;;;;;;3.90;1.70;;;22.10;95.40;;;;;;5106505;28;20093;-73
2022/08/25 08:31:47;;;;;;;3.45;1.70;;;22.20;95.30;;;;;;5092749;28;20059;-73
2022/08/25 08:34:13;;;;;;;2.50;1.50;;;22.20;95.20;;;;;;5065719;28;20046;-73
2022/08/25 08:36:39;;;;;;;3.13;2.00;;;22.20;95.20;;;;;;5100486;28;20397;-73
2022/08/25 08:39:05;;;;;;;3.00;1.63;;;22.40;95.10;;;;;;5089441;28;20035;-73
2022/08/25 08:42:16;;;;;;;3.85;1.38;;;22.40;94.70;;;;;;5089856;28;20028;-73
2022/08/25 08:44:44;;;;;;;2.47;1.55;;;22.50;94.80;;;;;;5081184;28;20540;-73
2022/08/25 08:47:16;;;;;;;5.32;1.90;;;22.50;94.90;;;;;;5101517;27;20032;-73
2022/08/25 08:50:03;;;;;;;2.72;1.55;;;22.60;94.60;;;;;;5090740;28;20075;-72
2022/08/25 08:53:01;;;;;;;3.38;1.77;;;22.60;94.20;;;;;;5090988;28;20032;-73
2022/08/25 08:55:26;;;;;;;2.75;1.70;;;22.70;93.10;;;;;;5086236;28;20040;-73
2022/08/25 08:57:55;;;;;;;2.55;1.63;;;22.80;94.00;;;;;;5081391;28;20039;-73
2022/08/25 09:00:21;;;;;;;3.30;1.55;;;22.90;94.00;;;;;;5075642;28;20521;-73
2022/08/25 09:03:08;;;;;;;3.33;1.55;;;22.90;94.00;;;;;;5095043;28;20039;-74
2022/08/25 09:05:44;;;;;;;2.38;1.23;;;23.00;93.40;;;;;;5080280;28;20048;-73
2022/08/25 09:08:12;;;;;;;4.07;1.58;;;23.00;93.70;;;;;;5083699;28;20032;-74
2022/08/25 09:10:49;;;;;;;3.22;1.50;;;23.10;93.90;;;;;;5096829;28;20055;-73
2022/08/25 09:13:37;;;;;;;4.13;1.73;;;23.10;93.80;;;;;;5103911;28;20043;-73
2022/08/25 09:19:07;;;;;;;2.33;1.23;;;23.30;93.40;;;;;;5078253;28;20110;-73
2022/08/25 09:21:36;;;;;;;1.80;1.20;;;23.30;92.70;;;;;;5097221;28;20612;-73
2022/08/25 09:24:25;;;;;;;2.55;1.30;;;23.50;92.90;;;;;;5084796;28;20044;-73
2022/08/25 09:27:06;;;;;;;1.90;1.23;;;23.50;92.40;;;;;;5079645;28;20080;-73
2022/08/25 09:29:45;;;;;;;2.00;1.20;;;23.50;92.50;;;;;;5093177;28;20329;-73
2022/08/25 09:32:10;;;;;;;2.42;1.17;;;23.60;91.40;;;;;;5062672;28;20051;-73
2022/08/25 09:34:36;;;;;;;2.25;1.17;;;23.60;91.90;;;;;;5091347;28;20059;-73
2022/08/25 09:37:02;;;;;;;2.40;1.50;;;23.60;91.80;;;;;;5079288;28;20051;-73
2022/08/25 09:39:27;;;;;;;2.13;1.30;;;23.70;91.90;;;;;;5091929;28;20083;-73
2022/08/25 09:41:56;;;;;;;2.20;1.02;;;23.70;91.80;;;;;;5090516;28;20036;-73
2022/08/25 09:44:38;;;;;;;4.57;1.27;;;23.80;91.60;;;;;;5097347;28;20032;-73
2022/08/25 09:47:06;;;;;;;2.10;1.23;;;23.80;90.80;;;;;;5090641;28;20562;-73
2022/08/25 09:49:43;;;;;;;1.75;1.02;;;23.80;91.30;;;;;;5098440;28;20031;-77
2022/08/25 09:52:24;;;;;;;2.67;1.35;;;23.90;90.50;;;;;;5085340;28;20524;-73
2022/08/25 09:54:50;;;;;;;1.60;1.00;;;23.90;90.10;;;;;;5089301;28;20602;-74
2022/08/25 09:57:41;;;;;;;2.83;1.10;;;24.00;90.10;;;;;;5099731;28;20114;-73
2022/08/25 10:00:24;;;;;;;3.20;1.15;;;24.10;86.70;;;;;;5091466;28;20035;-73
2022/08/25 10:03:10;;;;;;;3.78;1.05;;;24.10;87.50;;;;;;5071270;28;20336;-73
2022/08/25 10:05:48;;;;;;;2.92;1.05;;;24.20;84.40;;;;;;5070090;28;20051;-73
2022/08/25 10:08:30;;;;;;;3.72;1.08;;;24.20;87.30;;;;;;5092243;28;20043;-73
2022/08/25 10:10:59;;;;;;;2.42;0.95;;;24.20;83.40;;;;;;5082519;28;20047;-73
2022/08/25 10:13:45;;;;;;;2.78;1.15;;;24.30;86.80;;;;;;5093876;28;20039;-73
2022/08/25 10:16:23;;;;;;;2.60;1.38;;;24.30;84.80;;;;;;5095356;28;20035;-73
2022/08/25 10:19:07;;;;;;;2.10;1.38;;;24.40;82.60;;;;;;5078706;28;20031;-73
2022/08/25 10:21:35;;;;;;;2.15;1.40;;;24.40;81.90;;;;;;5092166;28;20410;-73
2022/08/25 10:24:01;;;;;;;2.35;1.08;;;24.50;85.20;;;;;;5088717;28;20047;-73
2022/08/25 10:26:34;;;;;;;2.28;1.20;;;24.50;85.00;;;;;;5070645;28;20036;-74
2022/08/25 10:29:04;;;;;;;2.92;1.38;;;24.50;84.10;;;;;;5092334;28;20035;-73
2022/08/25 10:31:40;;;;;;;2.05;1.00;;;24.60;83.50;;;;;;5087737;28;20363;-73
2022/08/25 10:34:17;;;;;;;1.70;1.10;;;24.60;83.70;;;;;;5080190;28;20036;-73
2022/08/25 10:37:14;;;;;;;2.28;0.88;;;24.70;82.00;;;;;;5087377;28;20048;-74
2022/08/25 10:39:45;;;;;;;2.22;1.15;;;24.80;80.00;;;;;;5083272;28;20114;-72
2022/08/25 10:42:28;;;;;;;2.22;1.30;;;24.80;81.30;;;;;;5075331;28;20051;-74
2022/08/25 10:45:41;;;;;;;1.77;0.98;;;24.80;79.10;;;;;;5086589;28;20078;-74
2022/08/25 10:48:19;;;;;;;3.78;1.20;;;24.90;79.60;;;;;;5095934;28;20036;-74
2022/08/25 10:50:47;;;;;;;2.22;1.00;;;24.90;82.00;;;;;;5071534;28;20117;-74
2022/08/25 10:53:39;;;;;;;2.05;1.08;;;24.90;82.10;;;;;;5093309;28;20042;-74
2022/08/25 10:56:30;;;;;;;1.85;1.10;;;25.00;80.00;;;;;;5086051;28;20032;-74
2022/08/25 10:59:08;;;;;;;1.73;0.80;;;25.00;80.90;;;;;;5088901;28;20036;-74
2022/08/25 11:01:48;;;;;;;1.73;1.02;;;25.00;81.30;;;;;;5089049;28;20493;-73
2022/08/25 11:04:29;;;;;;;2.90;1.33;;;25.00;81.00;;;;;;5084415;28;20048;-74
2022/08/25 11:07:07;;;;;;;2.10;0.95;;;25.00;79.20;;;;;;5098769;28;20197;-74
2022/08/25 11:09:38;;;;;;;3.53;1.08;;;25.10;80.30;;;;;;5097819;27;20092;-74
2022/08/25 11:12:07;;;;;;;1.83;1.10;;;25.10;79.50;;;;;;5078354;28;20037;-74
2022/08/25 11:14:46;;;;;;;2.20;1.00;;;25.20;78.80;;;;;;5088820;28;20740;-74
2022/08/25 11:17:36;;;;;;;1.85;1.05;;;25.20;78.30;;;;;;5101504;28;20469;-74
2022/08/25 11:20:11;;;;;;;1.70;1.10;;;25.20;75.10;;;;;;5095685;28;20652;-74
2022/08/25 11:22:54;;;;;;;4.93;1.45;;;25.20;77.60;;;;;;5098610;28;20067;-74
2022/08/25 11:25:31;;;;;;;1.67;0.98;;;25.20;75.50;;;;;;5080042;28;20401;-74
2022/08/25 11:28:15;;;;;;;2.15;0.95;;;25.20;75.70;;;;;;5102398;28;20123;-73
2022/08/25 11:30:41;;;;;;;6.07;1.30;;;25.30;74.50;;;;;;5090433;28;20063;-74
2022/08/25 11:33:12;;;;;;;1.95;1.15;;;25.30;76.60;;;;;;5091255;28;20052;-74
2022/08/25 11:35:53;;;;;;;2.22;1.08;;;25.30;76.20;;;;;;5094873;28;20335;-74
2022/08/25 11:38:46;;;;;;;2.60;1.17;;;25.40;76.00;;;;;;5085604;28;20616;-74
2022/08/25 11:41:20;;;;;;;3.13;1.10;;;25.40;73.60;;;;;;5084528;28;20035;-74
2022/08/25 11:43:52;;;;;;;2.15;1.00;;;25.50;76.80;;;;;;5088938;28;20043;-74
2022/08/25 11:46:55;;;;;;;2.15;1.13;;;25.50;75.90;;;;;;5086541;28;20043;-74
2022/08/25 11:49:31;;;;;;;1.90;1.20;;;25.50;72.10;;;;;;5081082;28;20510;-74
2022/08/25 11:51:57;;;;;;;1.33;0.88;;;25.50;75.10;;;;;;5100871;28;20082;-74
2022/08/25 11:54:41;;;;;;;2.33;1.20;;;25.60;75.30;;;;;;5076865;28;20036;-74
2022/08/25 11:57:16;;;;;;;1.60;0.90;;;25.60;73.40;;;;;;5100225;28;20051;-74
2022/08/25 11:59:50;;;;;;;2.38;1.15;;;25.70;71.10;;;;;;5084140;28;20397;-73
2022/08/25 12:02:42;;;;;;;2.08;1.23;;;25.70;73.10;;;;;;5094962;28;20048;-74
2022/08/25 12:05:51;;;;;;;1.65;1.10;;;25.70;69.00;;;;;;5077049;28;20202;-74
2022/08/25 12:08:46;;;;;;;1.95;1.10;;;25.80;66.50;;;;;;5089528;28;20425;-74
2022/08/25 12:11:37;;;;;;;2.67;1.33;;;25.80;68.10;;;;;;5085752;28;20031;-74
2022/08/25 12:14:21;;;;;;;2.58;1.00;;;25.80;70.10;;;;;;5090102;28;20043;-74
2022/08/25 12:16:50;;;;;;;4.53;0.93;;;25.80;69.20;;;;;;5096741;28;20135;-74
2022/08/25 12:19:26;;;;;;;2.25;1.10;;;25.80;71.60;;;;;;5092218;28;20094;-74
2022/08/25 12:22:01;;;;;;;1.48;1.05;;;25.80;69.80;;;;;;5101530;28;20055;-74
2022/08/25 12:24:49;;;;;;;2.42;1.17;;;25.90;70.40;;;;;;5102669;28;20040;-74
2022/08/25 12:27:26;;;;;;;2.47;1.42;;;25.90;67.80;;;;;;5093469;28;20039;-72
2022/08/25 12:30:10;;;;;;;1.88;1.10;;;25.90;68.20;;;;;;5095575;28;20100;-72
2022/08/25 12:33:00;;;;;;;1.42;0.90;;;25.90;71.40;;;;;;5093102;28;20039;-72
2022/08/25 12:35:36;;;;;;;2.05;1.08;;;25.90;66.60;;;;;;5092895;28;20518;-72
2022/08/25 12:38:13;;;;;;;1.60;0.90;;;25.90;67.90;;;;;;5060922;28;20041;-72
2022/08/25 12:40:41;;;;;;;2.42;1.13;;;25.90;68.40;;;;;;5098608;28;20048;-72
2022/08/25 12:43:18;;;;;;;2.10;1.08;;;26.00;69.90;;;;;;5101700;28;20160;-72
2022/08/25 12:45:46;;;;;;;2.30;1.30;;;26.00;69.00;;;;;;5078521;28;20044;-72
2022/08/25 12:48:27;;;;;;;1.77;1.00;;;26.00;70.20;;;;;;5086958;28;20088;-72
2022/08/25 12:51:00;;;;;;;2.00;1.33;;;26.00;65.80;;;;;;5095875;28;20235;-72
2022/08/25 12:53:40;;;;;;;2.28;1.25;;;26.10;68.50;;;;;;5091041;28;20066;-72
2022/08/25 12:56:26;;;;;;;2.60;1.27;;;26.10;67.60;;;;;;5086810;28;20603;-72
2022/08/25 12:59:01;;;;;;;3.10;1.00;;;26.10;64.60;;;;;;5072806;28;20040;-71
2022/08/25 13:01:55;;;;;;;2.15;0.90;;;26.10;64.50;;;;;;5092434;28;20032;-70
2022/08/25 13:04:51;;;;;;;1.85;1.17;;;26.20;65.60;;;;;;5097160;28;20044;-72
2022/08/25 13:07:46;;;;;;;1.52;0.70;;;26.30;63.30;;;;;;5081916;28;20032;-71
2022/08/25 13:10:43;;;;;;;1.83;1.10;;;26.30;65.00;;;;;;5060106;28;20155;-71
2022/08/25 13:13:47;;;;;;;2.25;1.20;;;26.30;61.20;;;;;;5067877;28;20044;-71
2022/08/25 13:16:22;;;;;;;1.63;1.00;;;26.40;63.10;;;;;;5079261;28;20042;-71